createdAt,value
2018-07-27T00:02:32.362Z,1008.72
2018-07-27T00:07:28.469Z,1008.67
2018-07-27T00:12:24.487Z,1008.73
2018-07-27T00:17:20.290Z,1008.67
2018-07-27T00:22:16.317Z,1008.62
2018-07-27T00:27:12.202Z,1008.59
2018-07-27T00:32:09.249Z,1008.61
2018-07-27T00:37:05.799Z,1008.56
2018-07-27T00:42:01.476Z,1008.60
2018-07-27T00:46:58.373Z,1008.55
2018-07-27T00:51:54.828Z,1008.55
2018-07-27T00:56:50.408Z,1008.71
2018-07-27T01:01:47.268Z,1008.64
2018-07-27T01:06:42.847Z,1008.52
2018-07-27T01:11:38.760Z,1008.45
2018-07-27T01:16:34.925Z,1008.52
2018-07-27T01:21:31.836Z,1008.55
2018-07-27T01:26:27.741Z,1008.51
2018-07-27T01:31:24.687Z,1008.46
2018-07-27T01:36:20.100Z,1008.45
2018-07-27T01:41:16.018Z,1008.44
2018-07-27T01:46:11.929Z,1008.45
2018-07-27T01:51:08.042Z,1008.43
2018-07-27T01:56:04.549Z,1008.41
2018-07-27T02:01:00.460Z,1008.36
2018-07-27T02:05:56.482Z,1008.31
2018-07-27T02:10:52.647Z,1008.34
2018-07-27T02:15:48.735Z,1008.38
2018-07-27T02:20:45.272Z,1008.30
2018-07-27T02:25:42.132Z,1008.19
2018-07-27T02:30:37.726Z,1008.17
2018-07-27T02:35:33.725Z,1008.05
2018-07-27T02:40:30.144Z,1008.07
2018-07-27T02:45:26.025Z,1008.04
2018-07-27T02:50:22.451Z,1008.03
2018-07-27T02:55:18.622Z,1007.99
2018-07-27T03:00:14.439Z,1008.03
2018-07-27T03:05:10.320Z,1008.05
2018-07-27T03:10:06.176Z,1008.07
2018-07-27T03:15:02.045Z,1008.12
2018-07-27T03:19:57.896Z,1008.03
2018-07-27T03:24:53.889Z,1008.02
2018-07-27T03:29:50.349Z,1008.14
2018-07-27T03:34:47.139Z,1008.05
2018-07-27T03:39:43.648Z,1008.03
2018-07-27T03:44:39.371Z,1008.10
2018-07-27T03:49:35.224Z,1007.97
2018-07-27T03:54:31.205Z,1008.07
2018-07-27T03:59:27.326Z,1008.07
2018-07-27T04:04:24.226Z,1008.11
2018-07-27T04:09:19.862Z,1007.98
2018-07-27T04:14:15.867Z,1008.06
2018-07-27T04:19:11.894Z,1008.04
2018-07-27T04:24:07.748Z,1008.14
2018-07-27T04:29:03.647Z,1008.07
2018-07-27T04:34:00.120Z,1008.04
2018-07-27T04:38:57.570Z,1008.13
2018-07-27T04:43:54.848Z,1008.19
2018-07-27T04:48:51.160Z,1008.22
2018-07-27T04:53:47.910Z,1008.11
2018-07-27T04:58:44.742Z,1008.20
2018-07-27T05:03:41.020Z,1008.19
2018-07-27T05:08:37.195Z,1008.17
2018-07-27T05:13:34.881Z,1008.24
2018-07-27T05:18:31.012Z,1008.22
2018-07-27T05:23:28.559Z,1008.22
2018-07-27T05:28:25.219Z,1008.24
2018-07-27T05:33:21.248Z,1008.23
2018-07-27T05:38:17.265Z,1008.20
2018-07-27T05:43:13.291Z,1008.30
2018-07-27T05:48:09.441Z,1008.29
2018-07-27T05:53:06.085Z,1008.27
2018-07-27T05:58:02.587Z,1008.37
2018-07-27T06:03:00.212Z,1008.35
2018-07-27T06:07:55.752Z,1008.27
2018-07-27T06:12:51.546Z,1008.30
2018-07-27T06:17:47.419Z,1008.26
2018-07-27T06:22:43.822Z,1008.30
2018-07-27T06:27:40.780Z,1008.28
2018-07-27T06:32:36.278Z,1008.27
2018-07-27T06:37:32.459Z,1008.23
2018-07-27T06:42:28.501Z,1008.30
2018-07-27T06:47:24.450Z,1008.27
2018-07-27T06:52:20.978Z,1008.34
2018-07-27T06:57:16.906Z,1008.26
2018-07-27T07:02:12.848Z,1008.25
2018-07-27T07:07:08.980Z,1008.27
2018-07-27T07:12:06.008Z,1008.22
2018-07-27T07:17:02.087Z,1008.26
2018-07-27T07:21:58.452Z,1008.28
2018-07-27T07:26:55.003Z,1008.27
2018-07-27T07:31:51.025Z,1008.28
2018-07-27T07:36:47.091Z,1008.28
2018-07-27T07:41:43.379Z,1008.30
2018-07-27T07:46:40.189Z,1008.19
2018-07-27T07:51:37.213Z,1008.18
2018-07-27T07:56:33.285Z,1008.35
2018-07-27T08:01:33.140Z,1008.20
2018-07-27T08:06:32.288Z,1008.15
2018-07-27T08:11:30.598Z,1008.20
2018-07-27T08:16:28.129Z,1008.04
2018-07-27T08:21:25.769Z,1008.09
2018-07-27T08:26:23.563Z,1008.08
2018-07-27T08:31:21.569Z,1008.08
2018-07-27T08:36:17.946Z,1007.93
2018-07-27T08:41:14.776Z,1007.92
2018-07-27T08:46:10.973Z,1007.87
2018-07-27T08:51:07.044Z,1007.88
2018-07-27T08:56:03.264Z,1007.87
2018-07-27T09:00:59.818Z,1007.88
2018-07-27T09:05:56.840Z,1007.78
2018-07-27T09:10:53.632Z,1007.87
2018-07-27T09:15:50.149Z,1007.62
2018-07-27T09:20:44.565Z,1007.74
2018-07-27T09:25:41.566Z,1007.79
2018-07-27T09:30:38.839Z,1007.73
2018-07-27T09:35:36.631Z,1007.68
2018-07-27T09:40:34.527Z,1007.65
2018-07-27T09:45:30.819Z,1007.65
2018-07-27T09:50:28.238Z,1007.59
2018-07-27T09:55:23.989Z,1007.54
2018-07-27T10:00:20.541Z,1007.54
2018-07-27T10:05:16.676Z,1007.46
2018-07-27T10:10:13.204Z,1007.51
2018-07-27T10:15:10.236Z,1007.33
2018-07-27T10:20:06.412Z,1007.38
2018-07-27T10:25:02.371Z,1007.27
2018-07-27T10:30:00.214Z,1007.44
2018-07-27T10:34:55.540Z,1007.28
2018-07-27T10:39:51.698Z,1007.20
2018-07-27T10:44:48.034Z,1007.15
2018-07-27T10:49:45.914Z,1006.98
2018-07-27T10:54:42.303Z,1007.06
2018-07-27T10:59:38.391Z,1006.99
2018-07-27T11:04:35.730Z,1006.94
2018-07-27T11:09:32.154Z,1006.75
2018-07-27T11:14:28.622Z,1006.61
2018-07-27T11:19:25.419Z,1006.54
2018-07-27T11:24:22.754Z,1006.45
2018-07-27T11:29:18.964Z,1006.42
2018-07-27T11:34:14.868Z,1006.35
2018-07-27T11:39:11.590Z,1006.28
2018-07-27T11:44:08.728Z,1006.29
2018-07-27T11:49:06.092Z,1006.22
2018-07-27T11:54:02.694Z,1006.16
2018-07-27T11:59:00.380Z,1006.00
2018-07-27T12:03:55.599Z,1006.01
2018-07-27T12:08:51.922Z,1005.95
2018-07-27T12:13:49.397Z,1005.86
2018-07-27T12:18:45.768Z,1005.79
2018-07-27T12:23:42.322Z,1005.82
2018-07-27T12:28:38.803Z,1005.79
2018-07-27T12:33:34.545Z,1005.74
2018-07-27T12:38:30.280Z,1005.95
2018-07-27T12:43:24.287Z,1005.74
2018-07-27T12:48:20.837Z,1005.64
2018-07-27T12:53:16.763Z,1005.57
2018-07-27T12:58:14.164Z,1005.38
2018-07-27T13:03:09.907Z,1005.34
2018-07-27T13:08:04.834Z,1005.27
2018-07-27T13:13:01.031Z,1005.34
2018-07-27T13:17:58.494Z,1005.22
2018-07-27T13:22:54.915Z,1005.15
2018-07-27T13:27:50.751Z,1005.10
2018-07-27T13:32:47.768Z,1004.99
2018-07-27T13:37:42.961Z,1004.90
2018-07-27T13:42:38.384Z,1004.82
2018-07-27T13:47:34.307Z,1004.79
2018-07-27T13:52:29.944Z,1004.70
2018-07-27T13:57:25.618Z,1004.67
2018-07-27T14:02:22.041Z,1004.62
2018-07-27T14:07:18.120Z,1004.37
2018-07-27T14:12:15.816Z,1004.40
2018-07-27T14:17:11.937Z,1004.46
2018-07-27T14:22:07.222Z,1004.36
2018-07-27T14:27:02.579Z,1004.31
2018-07-27T14:31:59.019Z,1004.38
2018-07-27T14:36:54.856Z,1004.30
2018-07-27T14:41:50.312Z,1004.14
2018-07-27T14:46:45.889Z,1004.08
2018-07-27T14:51:41.767Z,1004.25
2018-07-27T14:56:38.529Z,1004.15
2018-07-27T15:01:34.546Z,1004.02
2018-07-27T15:06:31.485Z,1003.85
2018-07-27T15:11:27.330Z,1003.74
2018-07-27T15:16:23.809Z,1003.79
2018-07-27T15:21:20.794Z,1003.71
2018-07-27T15:26:16.554Z,1003.75
2018-07-27T15:31:13.769Z,1003.70
2018-07-27T15:36:09.666Z,1003.66
2018-07-27T15:41:05.826Z,1003.65
2018-07-27T15:46:03.099Z,1003.62
2018-07-27T15:50:59.044Z,1003.70
2018-07-27T15:55:56.384Z,1003.47
2018-07-27T16:00:52.905Z,1003.56
2018-07-27T16:05:48.903Z,1003.49
2018-07-27T16:10:45.480Z,1003.49
2018-07-27T16:15:41.369Z,1003.32
2018-07-27T16:20:37.408Z,1003.28
2018-07-27T16:25:33.488Z,1003.30
2018-07-27T16:30:30.029Z,1003.20
2018-07-27T16:35:25.984Z,1003.18
2018-07-27T16:40:23.127Z,1003.20
2018-07-27T16:45:19.081Z,1003.14
2018-07-27T16:50:15.200Z,1003.12
2018-07-27T16:55:11.229Z,1003.11
2018-07-27T17:00:07.663Z,1003.07
2018-07-27T17:05:03.692Z,1002.97
2018-07-27T17:10:01.316Z,1003.01
2018-07-27T17:14:56.802Z,1002.98
2018-07-27T17:19:53.055Z,1003.03
2018-07-27T17:24:49.202Z,1003.13
2018-07-27T17:29:45.351Z,1003.11
2018-07-27T17:34:41.606Z,1003.05
2018-07-27T17:39:38.583Z,1003.08
2018-07-27T17:44:34.445Z,1003.05
2018-07-27T17:49:30.432Z,1003.12
2018-07-27T17:54:26.580Z,1003.08
2018-07-27T17:59:22.530Z,1003.12
2018-07-27T18:04:18.503Z,1002.99
2018-07-27T18:09:14.743Z,1003.03
2018-07-27T18:14:10.716Z,1003.05
2018-07-27T18:19:07.688Z,1002.97
2018-07-27T18:24:03.434Z,1002.99
2018-07-27T18:28:59.322Z,1003.02
2018-07-27T18:33:55.576Z,1002.95
2018-07-27T18:38:51.496Z,1002.88
2018-07-27T18:43:47.518Z,1002.90
2018-07-27T18:48:44.882Z,1002.88
2018-07-27T18:53:40.825Z,1002.81
2018-07-27T18:58:37.706Z,1002.81
2018-07-27T19:03:33.793Z,1002.80
2018-07-27T19:08:30.707Z,1002.60
2018-07-27T19:13:27.295Z,1002.62
2018-07-27T19:18:22.886Z,1002.68
2018-07-27T19:23:19.021Z,1002.70
2018-07-27T19:28:15.967Z,1002.77
2018-07-27T19:33:11.440Z,1002.85
2018-07-27T19:38:07.773Z,1002.81
2018-07-27T19:43:04.109Z,1002.77
2018-07-27T19:48:00.202Z,1002.77
2018-07-27T19:52:57.086Z,1002.61
2018-07-27T19:57:53.915Z,1002.66
2018-07-27T20:02:50.505Z,1002.71
2018-07-27T20:07:47.688Z,1002.64
2018-07-27T20:12:43.569Z,1002.60
2018-07-27T20:17:40.216Z,1002.43
2018-07-27T20:22:36.122Z,1002.47
2018-07-27T20:27:32.048Z,1002.52
2018-07-27T20:32:29.536Z,1002.50
2018-07-27T20:37:25.245Z,1002.52
2018-07-27T20:42:21.234Z,1002.55
2018-07-27T20:47:17.082Z,1002.53
2018-07-27T20:52:14.162Z,1002.59
2018-07-27T20:57:10.155Z,1002.51
2018-07-27T21:02:07.582Z,1002.56
2018-07-27T21:07:04.186Z,1002.56
2018-07-27T21:12:00.416Z,1002.62
2018-07-27T21:16:56.545Z,1002.61
2018-07-27T21:21:52.651Z,1002.53
2018-07-27T21:26:49.738Z,1002.64
2018-07-27T21:31:46.427Z,1002.56
2018-07-27T21:36:43.144Z,1002.55
2018-07-27T21:41:38.998Z,1002.54
2018-07-27T21:46:35.978Z,1002.57
2018-07-27T21:51:32.634Z,1002.64
2018-07-27T21:56:28.463Z,1002.49
2018-07-27T22:01:24.418Z,1002.58
2018-07-27T22:06:21.315Z,1002.65
2018-07-27T22:11:17.069Z,1002.60
2018-07-27T22:16:12.990Z,1002.52
2018-07-27T22:21:08.993Z,1002.50
2018-07-27T22:26:05.315Z,1002.55
2018-07-27T22:31:01.313Z,1002.55
2018-07-27T22:35:58.404Z,1002.45
2018-07-27T22:40:54.209Z,1002.46
2018-07-27T22:45:50.079Z,1002.40
2018-07-27T22:50:45.933Z,1002.29
2018-07-27T22:55:43.000Z,1002.37
2018-07-27T23:00:38.622Z,1002.34
2018-07-27T23:05:34.695Z,1002.31
2018-07-27T23:10:31.421Z,1002.28
2018-07-27T23:15:28.285Z,1002.21
2018-07-27T23:20:24.124Z,1002.10
2018-07-27T23:25:21.065Z,1002.13
2018-07-27T23:30:17.656Z,1002.05
2018-07-27T23:35:13.566Z,1002.07
2018-07-27T23:40:09.619Z,1001.97
2018-07-27T23:45:05.534Z,1001.98
2018-07-27T23:50:02.373Z,1001.87
2018-07-27T23:54:58.517Z,1001.87
2018-07-27T23:59:54.505Z,1001.70
